Time;durP1;ratioP1;P1;durP2;ratioP2;P2;SDS_P1;SDS_P2;PMS_P1;PMS_P2;Temp;Humidity;BMP_temperature;BMP_pressure;BME280_temperature;BME280_humidity;BME280_pressure;Samples;Min_cycle;Max_cycle;Signal;HPM_P1;HPM_P2
2023/09/06 00:01:16;;;;;;;6.72;3.50;;;;;;;19.71;55.20;99867.97;4347303;32;33441;-94
2023/09/06 00:03:44;;;;;;;7.47;3.80;;;;;;;19.73;54.93;99860.91;4346719;32;33616;-94
2023/09/06 00:06:12;;;;;;;5.68;4.03;;;;;;;19.62;55.05;99866.34;4360477;32;33861;-95
2023/09/06 00:08:39;;;;;;;6.03;3.65;;;;;;;19.67;54.67;99861.00;4360354;32;32951;-96
2023/09/06 00:11:07;;;;;;;7.37;3.80;;;;;;;19.53;55.16;99862.91;4347583;32;33833;-96
2023/09/06 00:13:35;;;;;;;6.05;3.45;;;;;;;19.51;55.36;99867.31;4348010;32;34100;-96
2023/09/06 00:16:04;;;;;;;6.85;4.20;;;;;;;19.46;55.69;99872.63;4347583;32;34516;-96
2023/09/06 00:18:32;;;;;;;7.47;3.58;;;;;;;19.44;55.58;99867.41;4360047;32;33767;-96
2023/09/06 00:21:01;;;;;;;5.87;3.50;;;;;;;19.40;55.67;99870.97;4359331;32;34530;-96
2023/09/06 00:23:29;;;;;;;5.60;3.58;;;;;;;19.41;55.36;99866.56;4359579;32;34458;-96
2023/09/06 00:25:57;;;;;;;6.87;3.85;;;;;;;19.44;55.26;99866.53;4358274;32;33947;-96
2023/09/06 00:28:25;;;;;;;7.62;3.80;;;;;;;19.42;54.99;99858.63;4345420;32;33583;-95
2023/09/06 00:30:57;;;;;;;8.68;4.00;;;;;;;19.55;54.63;99853.25;4344815;32;34617;-96
2023/09/06 00:33:34;;;;;;;5.60;3.47;;;;;;;19.29;55.29;99857.06;4359513;32;34742;-96
2023/09/06 00:36:04;;;;;;;7.32;3.70;;;;;;;19.37;55.35;99860.47;4345975;32;34483;-96
2023/09/06 00:38:32;;;;;;;6.05;3.45;;;;;;;19.41;54.85;99863.94;4345519;32;33820;-96
2023/09/06 00:41:00;;;;;;;6.55;3.70;;;;;;;19.41;54.65;99861.31;4332935;32;32329;-96
2023/09/06 00:43:27;;;;;;;7.10;3.65;;;;;;;19.42;54.85;99869.16;4358110;32;34370;-95
2023/09/06 00:45:55;;;;;;;5.85;3.55;;;;;;;19.39;54.96;99866.56;4359992;32;33855;-96
2023/09/06 00:48:25;;;;;;;6.60;3.72;;;;;;;19.40;54.99;99867.47;4346954;32;34120;-95
2023/09/06 00:50:55;;;;;;;5.60;3.50;;;;;;;19.40;55.04;99863.06;4345446;33;34232;-96
2023/09/06 00:53:25;;;;;;;5.40;3.45;;;;;;;19.29;55.54;99871.97;4330726;33;35135;-96
2023/09/06 00:55:52;;;;;;;6.47;3.40;;;;;;;19.22;55.84;99863.28;4359827;32;33771;-96
2023/09/06 00:58:20;;;;;;;6.78;3.70;;;;;;;19.28;55.62;99863.22;4359305;32;34157;-96
2023/09/06 01:00:49;;;;;;;6.55;3.72;;;;;;;19.27;55.50;99860.59;4347867;32;33797;-96
2023/09/06 01:03:18;;;;;;;6.07;3.67;;;;;;;19.25;55.81;99860.62;4360303;32;34581;-96
2023/09/06 01:05:54;;;;;;;7.57;4.07;;;;;;;19.18;55.90;99858.94;4360951;32;34492;-96
2023/09/06 01:08:40;;;;;;;6.72;3.97;;;;;;;19.24;55.52;99856.22;4348176;32;33288;-96
2023/09/06 01:11:21;;;;;;;6.75;3.95;;;;;;;19.14;55.95;99857.25;4333166;32;32932;-96
2023/09/06 01:13:54;;;;;;;5.65;3.65;;;;;;;19.20;55.71;99855.38;4359541;32;34070;-96
2023/09/06 01:16:34;;;;;;;5.72;3.33;;;;;;;19.15;55.91;99864.22;4346158;32;34156;-96
2023/09/06 01:19:03;;;;;;;5.93;3.90;;;;;;;19.23;55.77;99865.00;4359082;32;33288;-96
2023/09/06 01:21:35;;;;;;;7.12;3.95;;;;;;;19.14;55.98;99868.62;4335199;32;33941;-96
2023/09/06 01:24:05;;;;;;;6.07;3.55;;;;;;;19.09;56.15;99864.28;4346766;32;34060;-96
2023/09/06 01:26:34;;;;;;;6.93;3.50;;;;;;;18.99;56.37;99863.53;4347601;32;34573;-96
2023/09/06 01:29:01;;;;;;;6.28;3.53;;;;;;;19.08;55.96;99857.28;4334930;32;32671;-96
2023/09/06 01:31:29;;;;;;;6.43;3.40;;;;;;;19.09;55.56;99861.66;4345909;32;33908;-96
2023/09/06 01:33:57;;;;;;;7.35;3.28;;;;;;;19.14;55.43;99867.75;4360042;32;34784;-96
2023/09/06 01:36:25;;;;;;;6.28;3.58;;;;;;;19.15;55.30;99869.47;4360138;32;33872;-96
2023/09/06 01:38:53;;;;;;;7.18;4.20;;;;;;;18.98;55.78;99867.06;4336300;32;33615;-96
2023/09/06 01:41:21;;;;;;;6.53;3.40;;;;;;;19.15;55.03;99861.59;4334258;32;33173;-96
2023/09/06 01:43:54;;;;;;;6.90;4.22;;;;;;;19.10;54.95;99856.41;4346416;32;33642;-96
2023/09/06 01:46:27;;;;;;;6.93;3.22;;;;;;;19.10;55.10;99858.16;4334199;32;33821;-96
2023/09/06 01:49:02;;;;;;;6.37;3.40;;;;;;;19.15;55.14;99861.59;4359224;32;34193;-96
2023/09/06 01:51:31;;;;;;;4.95;3.12;;;;;;;19.16;55.02;99861.56;4359422;32;33663;-96
2023/09/06 01:54:07;;;;;;;6.45;3.42;;;;;;;19.10;54.98;99860.78;4348055;32;33421;-96
2023/09/06 01:56:37;;;;;;;5.95;3.67;;;;;;;19.11;54.99;99865.16;4336887;32;32856;-96
2023/09/06 01:59:04;;;;;;;7.68;3.75;;;;;;;19.07;54.88;99858.19;4349266;32;33561;-96
2023/09/06 02:01:33;;;;;;;5.53;3.12;;;;;;;19.10;54.75;99860.78;4351011;32;32799;-96
2023/09/06 02:04:05;;;;;;;7.12;3.37;;;;;;;19.00;55.07;99867.88;4369173;32;34429;-96
2023/09/06 02:06:33;;;;;;;8.93;3.37;;;;;;;19.02;54.87;99865.25;4352636;32;33992;-96
2023/09/06 02:09:07;;;;;;;5.93;3.60;;;;;;;19.02;54.86;99867.91;4366619;32;33168;-95
2023/09/06 02:11:36;;;;;;;6.07;3.80;;;;;;;19.05;54.63;99863.44;4368538;32;33910;-96
2023/09/06 02:14:06;;;;;;;6.72;3.58;;;;;;;19.00;54.89;99864.41;4325738;33;34460;-96
2023/09/06 02:16:34;;;;;;;6.10;3.33;;;;;;;18.93;55.25;99863.56;4336181;32;33857;-96
2023/09/06 02:19:06;;;;;;;6.00;3.40;;;;;;;18.85;55.42;99855.78;4359286;32;33451;-96
2023/09/06 02:21:38;;;;;;;6.10;3.33;;;;;;;18.85;55.20;99855.78;4358827;32;34576;-96
2023/09/06 02:24:08;;;;;;;6.95;3.25;;;;;;;18.80;55.07;99852.34;4346927;32;34002;-96
2023/09/06 02:26:37;;;;;;;5.82;3.55;;;;;;;18.82;54.98;99855.78;4344973;32;33798;-96
2023/09/06 02:29:04;;;;;;;6.80;3.40;;;;;;;18.78;55.00;99854.09;4346014;32;33198;-96
2023/09/06 02:31:32;;;;;;;7.80;3.75;;;;;;;18.84;54.97;99846.16;4361182;32;34301;-96
2023/09/06 02:34:01;;;;;;;6.93;3.60;;;;;;;18.75;55.08;99843.59;4347451;32;34016;-96
2023/09/06 02:36:28;;;;;;;6.82;3.83;;;;;;;18.65;55.34;99836.69;4335522;32;34632;-96
2023/09/06 02:38:57;;;;;;;6.57;3.45;;;;;;;18.74;55.25;99846.25;4361000;32;32945;-96
2023/09/06 02:41:26;;;;;;;6.43;3.53;;;;;;;18.82;55.11;99849.69;4361661;32;33568;-94
2023/09/06 02:43:53;;;;;;;4.95;3.40;;;;;;;18.79;54.99;99842.72;4347158;32;33650;-95
2023/09/06 02:46:21;;;;;;;6.22;3.50;;;;;;;18.74;54.97;99851.50;4355672;32;34394;-96
2023/09/06 02:48:50;;;;;;;5.87;3.55;;;;;;;18.67;54.74;99845.41;4345930;32;33564;-96
2023/09/06 02:51:17;;;;;;;7.90;3.58;;;;;;;18.65;54.67;99847.19;4345796;32;33387;-95
2023/09/06 02:53:45;;;;;;;5.78;3.60;;;;;;;18.68;54.68;99853.28;4347402;32;34821;-96
2023/09/06 02:56:14;;;;;;;5.62;3.40;;;;;;;18.71;54.81;99850.69;4359719;32;33945;-96
2023/09/06 02:58:45;;;;;;;7.93;3.72;;;;;;;18.58;55.33;99851.63;4336250;32;33786;-95
2023/09/06 03:01:19;;;;;;;5.85;3.28;;;;;;;18.53;55.52;99852.56;4345113;32;35004;-96
2023/09/06 03:03:53;;;;;;;6.50;3.70;;;;;;;18.41;55.68;99851.78;4360736;32;33451;-96
2023/09/06 03:06:33;;;;;;;5.68;3.65;;;;;;;18.46;55.49;99852.59;4360935;32;33990;-95
2023/09/06 03:09:08;;;;;;;7.57;3.53;;;;;;;18.37;56.12;99852.69;4350199;32;31561;-96
2023/09/06 03:11:38;;;;;;;6.30;3.60;;;;;;;18.34;56.30;99847.47;4354550;32;35282;-96
2023/09/06 03:14:06;;;;;;;7.55;3.92;;;;;;;18.41;55.99;99849.16;4369074;32;33810;-96
2023/09/06 03:16:38;;;;;;;6.65;3.25;;;;;;;18.31;56.30;99852.72;4369603;32;33728;-96
2023/09/06 03:19:10;;;;;;;6.07;3.55;;;;;;;18.40;55.82;99851.78;4366849;32;33314;-96
2023/09/06 03:21:38;;;;;;;6.70;3.45;;;;;;;18.38;55.76;99849.16;4367320;32;33958;-96
2023/09/06 03:24:12;;;;;;;5.43;3.10;;;;;;;18.43;55.51;99852.62;4339469;32;34580;-96
2023/09/06 03:26:43;;;;;;;7.87;4.03;;;;;;;18.39;55.52;99853.53;4366893;32;34347;-96
2023/09/06 03:29:15;;;;;;;6.12;3.17;;;;;;;18.43;55.25;99855.25;4368307;32;33186;-96
2023/09/06 03:31:45;;;;;;;6.97;3.55;;;;;;;18.46;55.09;99855.22;4353630;32;33358;-96
2023/09/06 03:34:15;;;;;;;5.78;3.40;;;;;;;18.36;55.36;99848.28;4364935;32;34782;-96
2023/09/06 03:36:46;;;;;;;6.30;3.20;;;;;;;18.40;55.27;99857.88;4340892;32;33035;-96
2023/09/06 03:39:15;;;;;;;6.68;3.53;;;;;;;18.20;56.08;99851.94;4367538;32;34359;-96
2023/09/06 03:41:42;;;;;;;6.43;3.37;;;;;;;18.16;56.37;99853.72;4371823;32;34354;-96
2023/09/06 03:44:10;;;;;;;7.10;3.50;;;;;;;18.26;56.14;99849.28;4354365;32;34631;-96
2023/09/06 03:46:59;;;;;;;8.18;4.10;;;;;;;18.26;55.68;99857.16;4368769;32;35083;-96
2023/09/06 03:49:27;;;;;;;6.03;3.67;;;;;;;18.39;55.41;99857.91;4350355;32;33776;-96
2023/09/06 03:51:59;;;;;;;6.10;3.17;;;;;;;18.33;55.36;99856.19;4362499;32;34529;-96
2023/09/06 03:54:27;;;;;;;8.30;4.00;;;;;;;18.31;55.52;99863.22;4351026;32;34144;-96
2023/09/06 03:56:55;;;;;;;6.78;3.92;;;;;;;18.26;55.69;99853.63;4350148;32;34057;-96
2023/09/06 03:59:22;;;;;;;8.23;3.70;;;;;;;18.15;56.48;99858.97;4348916;32;33193;-96
2023/09/06 04:01:51;;;;;;;7.55;3.60;;;;;;;18.16;56.17;99866.81;4350424;32;33934;-96
2023/09/06 04:04:43;;;;;;;5.78;3.50;;;;;;;18.13;56.29;99860.72;4341916;32;33067;-96
2023/09/06 04:07:13;;;;;;;7.62;3.67;;;;;;;18.24;55.78;99864.16;4349704;32;33214;-96
2023/09/06 04:09:42;;;;;;;6.62;3.20;;;;;;;18.25;55.52;99863.25;4351737;32;32858;-96
2023/09/06 04:12:12;;;;;;;6.85;3.90;;;;;;;18.31;55.23;99862.34;4357588;32;33070;-96
2023/09/06 04:15:24;;;;;;;7.32;4.05;;;;;;;18.23;55.41;99865.03;4337719;32;33859;-96
2023/09/06 04:17:58;;;;;;;4.95;3.40;;;;;;;18.20;56.00;99865.06;4366773;32;34398;-96
2023/09/06 04:20:31;;;;;;;5.93;3.95;;;;;;;18.35;55.77;99854.44;4358771;32;33394;-96
2023/09/06 04:22:59;;;;;;;7.47;3.87;;;;;;;18.23;56.09;99859.78;4346981;32;33406;-96
2023/09/06 04:25:46;;;;;;;7.72;4.10;;;;;;;18.29;55.82;99869.34;4343280;32;33796;-96
2023/09/06 04:28:15;;;;;;;6.57;3.80;;;;;;;18.24;56.18;99872.03;4346806;32;33775;-96
2023/09/06 04:30:47;;;;;;;6.32;3.50;;;;;;;18.28;56.09;99879.00;4361013;32;33444;-96
2023/09/06 04:33:18;;;;;;;6.90;3.30;;;;;;;18.21;56.15;99872.03;4346678;32;33729;-96
2023/09/06 04:35:48;;;;;;;6.35;3.45;;;;;;;18.25;56.45;99876.38;4346152;32;34724;-96
2023/09/06 04:38:20;;;;;;;6.45;3.47;;;;;;;18.21;56.34;99886.03;4356888;32;33783;-96
2023/09/06 04:40:51;;;;;;;8.07;3.62;;;;;;;18.36;56.14;99879.78;4336897;32;34676;-96
2023/09/06 04:43:22;;;;;;;6.25;3.62;;;;;;;18.59;56.20;99889.25;4337156;32;33865;-96
2023/09/06 04:45:51;;;;;;;7.65;3.97;;;;;;;19.01;55.42;99888.00;4359926;32;33327;-96
2023/09/06 04:48:19;;;;;;;6.28;3.30;;;;;;;19.39;55.08;99889.38;4356079;32;34590;-96
2023/09/06 04:50:47;;;;;;;7.30;3.78;;;;;;;19.71;54.11;99885.53;4361875;32;31455;-96
2023/09/06 04:53:18;;;;;;;6.47;3.45;;;;;;;20.08;53.26;99891.16;4342367;32;33711;-96
2023/09/06 04:55:49;;;;;;;9.80;3.10;;;;;;;20.44;51.82;99880.94;4357799;32;33636;-96
2023/09/06 04:58:18;;;;;;;6.40;3.42;;;;;;;20.53;52.56;99886.09;4351434;32;34077;-96
2023/09/06 05:00:49;;;;;;;7.12;3.17;;;;;;;21.10;50.79;99888.59;4360230;32;33476;-96
2023/09/06 05:03:17;;;;;;;5.65;3.08;;;;;;;21.40;50.52;99891.56;4360379;32;34033;-96
2023/09/06 05:05:47;;;;;;;8.85;3.47;;;;;;;21.53;49.71;99883.41;4361970;32;35073;-96
2023/09/06 05:08:16;;;;;;;6.00;3.12;;;;;;;21.68;49.61;99889.28;4348190;32;33773;-96
2023/09/06 05:10:44;;;;;;;6.87;3.33;;;;;;;22.11;48.25;99890.03;4362283;32;33603;-94
2023/09/06 05:13:11;;;;;;;6.43;3.37;;;;;;;22.26;47.83;99886.22;4362300;32;33653;-96
2023/09/06 05:15:40;;;;;;;7.35;3.03;;;;;;;22.59;47.06;99891.59;4350537;32;34854;-95
2023/09/06 05:18:08;;;;;;;8.68;2.97;;;;;;;22.58;46.81;99884.59;4363179;32;33929;-96
2023/09/06 05:20:38;;;;;;;8.57;3.17;;;;;;;22.66;47.23;99895.84;4362146;32;32731;-96
2023/09/06 05:23:13;;;;;;;5.28;2.87;;;;;;;22.72;46.38;99893.03;4349566;32;33155;-96
2023/09/06 05:25:42;;;;;;;5.65;2.90;;;;;;;22.77;46.19;99896.44;4364226;32;34897;-96
2023/09/06 05:28:14;;;;;;;8.27;3.28;;;;;;;22.79;45.92;99889.31;4364075;32;33606;-96
2023/09/06 05:30:44;;;;;;;6.72;3.28;;;;;;;22.82;46.80;99894.53;4361790;32;33429;-96
2023/09/06 05:33:13;;;;;;;6.93;3.17;;;;;;;22.76;47.72;99889.38;4362707;32;34619;-96
2023/09/06 05:35:42;;;;;;;7.28;3.10;;;;;;;22.77;48.14;99899.06;4362900;32;35946;-96
2023/09/06 05:38:10;;;;;;;7.82;3.47;;;;;;;22.27;46.46;99892.38;4365065;32;33477;-95
2023/09/06 05:40:40;;;;;;;5.90;3.20;;;;;;;22.36;45.70;99886.87;4370574;32;33347;-96
2023/09/06 05:43:31;;;;;;;8.70;3.62;;;;;;;22.73;45.08;99900.06;4350299;32;33574;-96
2023/09/06 05:45:59;;;;;;;7.75;3.35;;;;;;;22.81;44.51;99898.09;4356338;32;33353;-95
2023/09/06 05:48:28;;;;;;;6.50;3.10;;;;;;;22.49;43.95;99892.72;4371039;32;34558;-96
2023/09/06 05:50:57;;;;;;;7.32;3.15;;;;;;;22.08;45.06;99900.66;4368255;32;33605;-96
2023/09/06 05:53:26;;;;;;;6.43;3.45;;;;;;;21.92;45.14;99903.69;4354589;32;34965;-96
2023/09/06 05:56:04;;;;;;;6.68;3.22;;;;;;;21.52;47.51;99910.69;4356111;32;35195;-96
2023/09/06 05:58:50;;;;;;;8.48;3.42;;;;;;;21.58;46.56;99909.69;4361710;32;34364;-96
2023/09/06 06:01:42;;;;;;;6.62;3.25;;;;;;;22.02;45.77;99905.25;4376538;32;34806;-96
2023/09/06 06:04:17;;;;;;;7.32;3.20;;;;;;;21.99;47.38;99906.16;4373369;32;34264;-96
2023/09/06 06:06:47;;;;;;;9.07;3.40;;;;;;;21.84;46.46;99902.09;4359318;32;33905;-96
2023/09/06 06:09:16;;;;;;;7.05;3.47;;;;;;;21.89;47.46;99906.41;4344681;32;33909;-96
2023/09/06 06:11:43;;;;;;;6.70;3.70;;;;;;;21.87;46.50;99904.66;4368693;32;33493;-96
2023/09/06 06:14:25;;;;;;;8.20;3.40;;;;;;;21.50;47.16;99917.75;4342730;32;32363;-95
2023/09/06 06:16:54;;;;;;;6.57;3.15;;;;;;;21.30;46.67;99904.06;4339514;32;33263;-94
2023/09/06 06:19:21;;;;;;;6.12;3.33;;;;;;;21.48;47.73;99918.66;4349866;32;33565;-94
2023/09/06 06:21:49;;;;;;;6.57;3.20;;;;;;;21.23;46.47;99913.00;4349944;32;32238;-96
2023/09/06 06:24:20;;;;;;;7.60;3.22;;;;;;;21.36;47.16;99919.78;4350041;32;33861;-96
2023/09/06 06:26:58;;;;;;;7.78;3.28;;;;;;;21.56;45.58;99916.78;4363459;32;33875;-96
2023/09/06 06:29:26;;;;;;;7.47;3.58;;;;;;;21.56;47.50;99919.41;4348579;32;33200;-96
2023/09/06 06:31:55;;;;;;;5.95;2.72;;;;;;;21.87;46.27;99925.78;4349597;32;33472;-96
2023/09/06 06:34:27;;;;;;;8.15;2.85;;;;;;;21.87;46.37;99920.50;4351813;32;33951;-96
2023/09/06 06:36:55;;;;;;;6.45;3.45;;;;;;;21.50;46.30;99935.34;4338759;32;33312;-96
2023/09/06 06:39:33;;;;;;;7.35;3.08;;;;;;;21.69;46.38;99928.81;4339735;32;33188;-96
2023/09/06 06:42:00;;;;;;;6.93;3.15;;;;;;;21.81;46.67;99932.97;4367707;32;33328;-96
2023/09/06 06:44:39;;;;;;;5.97;2.83;;;;;;;21.84;45.94;99935.53;4351202;32;33225;-96
2023/09/06 06:47:11;;;;;;;7.30;3.20;;;;;;;22.10;44.66;99929.72;4352105;32;34354;-96
2023/09/06 06:49:39;;;;;;;6.30;3.22;;;;;;;21.96;46.31;99942.31;4362401;32;33256;-96
2023/09/06 06:52:12;;;;;;;9.57;3.00;;;;;;;21.98;46.04;99946.69;4350949;32;34105;-96
2023/09/06 06:54:47;;;;;;;7.18;3.25;;;;;;;21.88;45.79;99939.84;4348400;32;33826;-95
2023/09/06 06:57:15;;;;;;;7.78;3.45;;;;;;;21.77;45.42;99948.00;4347104;32;34204;-96
2023/09/06 06:59:44;;;;;;;7.75;3.87;;;;;;;21.85;46.78;99942.56;4362066;32;33459;-96
2023/09/06 07:02:13;;;;;;;6.35;2.97;;;;;;;21.89;45.95;99943.34;4349194;32;33917;-95
2023/09/06 07:04:41;;;;;;;7.35;3.62;;;;;;;21.92;45.32;99946.81;4363005;32;34644;-96
2023/09/06 07:07:10;;;;;;;8.93;3.28;;;;;;;22.28;44.75;99941.66;4338832;32;32864;-95
2023/09/06 07:09:38;;;;;;;6.82;3.35;;;;;;;22.21;44.87;99942.72;4338200;32;32676;-96
2023/09/06 07:12:05;;;;;;;7.00;3.20;;;;;;;22.34;45.87;99954.72;4339202;32;33691;-96
2023/09/06 07:14:33;;;;;;;5.28;3.12;;;;;;;22.58;44.07;99940.09;4350238;32;33557;-96
2023/09/06 07:17:06;;;;;;;7.30;3.17;;;;;;;22.47;43.87;99929.78;4335848;32;34775;-96
2023/09/06 07:19:34;;;;;;;5.57;3.05;;;;;;;22.62;44.60;99928.53;4349936;32;34606;-96
2023/09/06 07:22:21;;;;;;;8.27;3.30;;;;;;;22.65;44.34;99928.44;4352377;32;32744;-96
2023/09/06 07:25:21;;;;;;;6.00;3.00;;;;;;;22.87;44.76;99933.19;4374017;32;33820;-96
2023/09/06 07:27:49;;;;;;;6.68;2.92;;;;;;;23.24;43.81;99927.84;4337320;32;33007;-96
2023/09/06 07:30:23;;;;;;;7.85;3.33;;;;;;;23.30;43.85;99925.06;4354896;32;33768;-96
2023/09/06 07:32:51;;;;;;;7.12;3.15;;;;;;;23.66;42.58;99931.13;4331348;32;32611;-96
2023/09/06 07:35:20;;;;;;;5.57;3.25;;;;;;;23.76;41.79;99929.94;4338929;32;32459;-96
2023/09/06 07:37:48;;;;;;;6.87;3.00;;;;;;;23.74;41.91;99933.53;4352729;32;34023;-96
2023/09/06 07:40:26;;;;;;;7.45;3.10;;;;;;;23.90;41.83;99936.59;4352424;32;33139;-96
2023/09/06 07:42:54;;;;;;;17.77;3.15;;;;;;;23.70;41.42;99931.91;4339763;32;34159;-95
2023/09/06 07:45:22;;;;;;;8.82;3.83;;;;;;;23.93;41.06;99936.53;4337869;32;34165;-96
2023/09/06 07:47:53;;;;;;;6.97;2.85;;;;;;;23.84;41.38;99934.16;4351499;32;33095;-96
2023/09/06 07:50:41;;;;;;;10.45;3.53;;;;;;;24.11;41.34;99937.75;4362279;32;33845;-94
2023/09/06 07:53:08;;;;;;;9.15;2.85;;;;;;;24.11;41.08;99935.13;4348426;32;33105;-94
2023/09/06 07:55:50;;;;;;;7.68;3.10;;;;;;;24.38;41.03;99936.03;4337155;32;32365;-92
2023/09/06 07:58:18;;;;;;;7.75;3.30;;;;;;;24.23;39.91;99932.94;4347519;32;34227;-93
2023/09/06 08:00:46;;;;;;;7.12;2.85;;;;;;;24.17;41.21;99935.78;4362601;32;33760;-96
2023/09/06 08:03:34;;;;;;;7.62;3.00;;;;;;;24.46;40.52;99934.03;4360488;32;32717;-93
2023/09/06 08:06:08;;;;;;;8.70;4.68;;;;;;;24.44;39.34;99925.28;4335671;32;33314;-94
2023/09/06 08:08:40;;;;;;;10.55;3.95;;;;;;;24.26;40.74;99938.16;4360996;32;35099;-94
2023/09/06 08:11:08;;;;;;;8.70;3.37;;;;;;;24.73;41.52;99938.44;4335001;32;33175;-95
2023/09/06 08:13:46;;;;;;;9.45;3.50;;;;;;;24.53;40.55;99940.87;4347541;32;34276;-95
2023/09/06 08:16:17;;;;;;;6.72;3.17;;;;;;;24.74;41.86;99940.19;4347058;32;33956;-95
2023/09/06 08:18:46;;;;;;;6.43;3.37;;;;;;;24.98;40.77;99942.94;4361110;32;34983;-94
2023/09/06 08:21:15;;;;;;;6.90;3.25;;;;;;;25.36;40.46;99944.28;4348356;32;34889;-95
2023/09/06 08:24:04;;;;;;;7.93;3.70;;;;;;;25.32;39.27;99941.81;4346558;32;33089;-94
2023/09/06 08:26:42;;;;;;;6.95;3.20;;;;;;;25.41;39.28;99952.09;4360314;32;34490;-94
2023/09/06 08:29:16;;;;;;;7.28;3.50;;;;;;;25.50;39.74;99943.81;4357169;32;34900;-93
2023/09/06 08:31:44;;;;;;;7.75;3.15;;;;;;;25.66;39.85;99937.00;4375443;32;34661;-94
2023/09/06 08:34:11;;;;;;;9.80;3.62;;;;;;;25.38;38.92;99941.56;4363651;32;33104;-96
2023/09/06 08:36:41;;;;;;;9.20;3.40;;;;;;;25.54;39.79;99945.44;4376462;27;33888;-87
2023/09/06 08:39:09;;;;;;;8.57;3.42;;;;;;;25.72;39.96;99943.84;4374654;32;34877;-87
2023/09/06 08:41:37;;;;;;;6.97;3.40;;;;;;;25.94;38.88;99942.16;4361116;32;33747;-87
2023/09/06 08:44:06;;;;;;;9.75;3.45;;;;;;;25.71;39.90;99948.31;4373637;32;33179;-89
2023/09/06 08:46:41;;;;;;;8.38;3.25;;;;;;;25.93;38.30;99952.88;4360707;32;33824;-87
2023/09/06 08:49:10;;;;;;;7.78;2.95;;;;;;;25.95;38.51;99948.37;4365102;32;33537;-90
2023/09/06 08:51:39;;;;;;;6.32;3.03;;;;;;;26.24;38.16;99946.38;4353746;32;33200;-88
2023/09/06 08:54:07;;;;;;;8.32;3.28;;;;;;;25.87;38.51;99950.44;4378908;32;33911;-90
2023/09/06 08:56:34;;;;;;;7.20;3.37;;;;;;;25.77;38.77;99941.06;4363810;32;34776;-90
2023/09/06 08:59:02;;;;;;;8.48;3.50;;;;;;;25.99;37.98;99935.81;4378142;32;34160;-89
2023/09/06 09:01:31;;;;;;;5.72;2.90;;;;;;;25.87;37.87;99935.34;4364543;32;34001;-88
2023/09/06 09:03:59;;;;;;;8.65;3.28;;;;;;;25.99;39.92;99934.03;4363737;32;34341;-87
2023/09/06 09:06:29;;;;;;;5.90;2.97;;;;;;;26.20;38.54;99941.16;4361577;32;33923;-90
2023/09/06 09:09:16;;;;;;;7.30;3.22;;;;;;;26.04;37.10;99934.72;4376486;32;34630;-92
2023/09/06 09:11:59;;;;;;;10.48;3.35;;;;;;;26.25;38.30;99938.31;4376566;32;33830;-86
2023/09/06 09:14:26;;;;;;;7.55;3.37;;;;;;;26.25;36.94;99942.78;4379266;32;34462;-87
2023/09/06 09:16:58;;;;;;;7.60;3.12;;;;;;;26.38;38.27;99941.38;4363723;32;34101;-87
2023/09/06 09:19:26;;;;;;;6.28;3.05;;;;;;;26.65;38.13;99936.78;4363024;32;33404;-87
2023/09/06 09:21:57;;;;;;;9.43;3.30;;;;;;;26.46;36.99;99938.44;4376890;32;33566;-87
2023/09/06 09:24:28;;;;;;;6.30;2.97;;;;;;;26.38;36.44;99933.41;4377100;32;33830;-88
2023/09/06 09:26:57;;;;;;;6.87;2.85;;;;;;;26.10;35.18;99934.50;4363426;32;33751;-86
2023/09/06 09:29:25;;;;;;;7.10;2.80;;;;;;;26.25;37.24;99933.00;4376388;32;34036;-86
2023/09/06 09:31:53;;;;;;;8.15;2.60;;;;;;;26.60;34.60;99934.31;4362614;32;32291;-89
2023/09/06 09:34:21;;;;;;;8.15;2.90;;;;;;;26.59;35.60;99935.22;4350960;32;34086;-91
2023/09/06 09:36:50;;;;;;;8.48;2.87;;;;;;;26.84;35.40;99935.06;4363996;32;33591;-87
2023/09/06 09:39:19;;;;;;;4.28;2.35;;;;;;;26.88;34.91;99938.47;4376949;32;34152;-88
2023/09/06 09:41:47;;;;;;;5.70;2.70;;;;;;;26.89;35.49;99934.88;4363555;32;34601;-87
2023/09/06 09:44:25;;;;;;;9.00;3.05;;;;;;;27.05;36.29;99943.97;4353631;32;34352;-93
2023/09/06 09:46:57;;;;;;;7.80;2.78;;;;;;;26.99;34.57;99930.91;4363075;32;34170;-87
2023/09/06 09:49:26;;;;;;;9.13;3.05;;;;;;;27.06;33.42;99923.53;4363416;32;33222;-87
2023/09/06 09:51:54;;;;;;;5.32;2.72;;;;;;;27.23;34.05;99926.34;4376476;32;33991;-87
2023/09/06 09:54:23;;;;;;;5.80;3.28;;;;;;;27.35;35.75;99930.25;4376276;32;32823;-87
2023/09/06 09:57:04;;;;;;;5.45;2.70;;;;;;;27.22;34.36;99929.94;4377858;32;33733;-91
2023/09/06 09:59:34;;;;;;;6.72;2.67;;;;;;;27.15;33.13;99923.16;4362878;32;34273;-87
2023/09/06 10:02:04;;;;;;;9.32;2.42;;;;;;;27.01;34.50;99923.72;4362479;32;35042;-87
2023/09/06 10:04:37;;;;;;;9.75;2.78;;;;;;;27.35;35.36;99925.81;4376416;32;33104;-88
2023/09/06 10:07:07;;;;;;;6.03;3.05;;;;;;;27.35;35.00;99919.59;4361998;32;33528;-87
2023/09/06 10:09:38;;;;;;;6.75;2.72;;;;;;;27.30;35.52;99916.28;4363421;32;34008;-86
2023/09/06 10:12:11;;;;;;;5.55;2.10;;;;;;;27.54;34.22;99912.56;4362393;32;34713;-86
2023/09/06 10:14:40;;;;;;;3.97;2.08;;;;;;;27.40;31.19;99912.28;4363793;32;32882;-89
2023/09/06 10:17:09;;;;;;;6.00;2.40;;;;;;;27.35;32.32;99912.50;4360199;32;34608;-89
2023/09/06 10:19:37;;;;;;;7.37;3.25;;;;;;;27.36;33.94;99906.25;4359841;32;33876;-88
2023/09/06 10:22:21;;;;;;;6.05;2.58;;;;;;;27.73;32.46;99903.69;4361364;32;33987;-88
2023/09/06 10:24:51;;;;;;;6.65;2.62;;;;;;;27.80;32.37;99895.37;4359974;32;33918;-86
2023/09/06 10:27:18;;;;;;;5.43;2.90;;;;;;;27.55;33.39;99895.63;4361225;32;33580;-88
2023/09/06 10:29:53;;;;;;;7.12;2.80;;;;;;;27.37;32.97;99896.44;4361306;32;34914;-88
2023/09/06 10:32:43;;;;;;;5.40;2.90;;;;;;;27.43;32.89;99906.84;4361402;32;33621;-91
2023/09/06 10:35:25;;;;;;;6.30;2.50;;;;;;;27.67;34.13;99899.53;4361184;32;33220;-88
2023/09/06 10:38:10;;;;;;;7.72;2.97;;;;;;;27.89;33.78;99902.97;4362655;32;34775;-86
2023/09/06 10:40:48;;;;;;;7.53;2.35;;;;;;;28.27;30.66;99891.41;4361037;32;34997;-87
2023/09/06 10:43:16;;;;;;;5.03;2.60;;;;;;;27.73;34.66;99887.72;4372182;32;34583;-93
2023/09/06 10:45:58;;;;;;;5.78;2.90;;;;;;;27.76;34.60;99884.94;4376152;32;33465;-84
2023/09/06 10:48:26;;;;;;;6.72;2.80;;;;;;;27.91;32.25;99886.03;4362678;32;33426;-86
2023/09/06 10:51:04;;;;;;;4.95;2.83;;;;;;;27.90;33.34;99882.50;4376250;32;34203;-86
2023/09/06 10:53:33;;;;;;;4.40;1.90;;;;;;;28.17;32.87;99876.78;4375910;32;34926;-87
2023/09/06 10:56:02;;;;;;;6.68;2.80;;;;;;;28.03;32.94;99880.97;4375959;32;33657;-89
2023/09/06 10:58:33;;;;;;;6.57;3.10;;;;;;;28.09;33.77;99886.00;4375549;32;33655;-88
2023/09/06 11:01:14;;;;;;;5.60;2.45;;;;;;;28.08;32.45;99875.44;4375839;32;34911;-87
2023/09/06 11:03:46;;;;;;;8.63;2.90;;;;;;;28.37;31.68;99876.69;4375624;32;34764;-86
2023/09/06 11:06:14;;;;;;;7.53;2.75;;;;;;;28.28;32.32;99879.78;4362453;32;33712;-87
2023/09/06 11:08:42;;;;;;;5.90;2.67;;;;;;;28.43;31.99;99876.41;4363078;32;34713;-88
2023/09/06 11:11:09;;;;;;;5.78;2.45;;;;;;;28.47;30.76;99863.78;4375208;32;34761;-87
2023/09/06 11:13:40;;;;;;;4.37;2.42;;;;;;;28.52;32.91;99870.59;4362293;32;33886;-87
2023/09/06 11:16:12;;;;;;;4.53;2.67;;;;;;;28.61;32.66;99871.97;4376426;32;33139;-91
2023/09/06 11:18:49;;;;;;;4.12;2.28;;;;;;;28.50;32.20;99867.16;4361960;32;34567;-87
2023/09/06 11:21:18;;;;;;;6.55;2.42;;;;;;;28.54;32.55;99868.72;4362077;32;33917;-87
2023/09/06 11:23:48;;;;;;;5.68;2.42;;;;;;;28.88;29.68;99861.69;4362032;32;34108;-87
2023/09/06 11:26:16;;;;;;;6.10;2.58;;;;;;;28.30;29.18;99861.94;4362009;32;33207;-87
2023/09/06 11:28:44;;;;;;;4.82;2.42;;;;;;;28.61;28.38;99867.50;4361940;32;33070;-87
2023/09/06 11:31:19;;;;;;;4.18;2.30;;;;;;;28.55;32.28;99859.78;4361961;32;33925;-89
2023/09/06 11:33:55;;;;;;;8.07;2.53;;;;;;;28.44;29.49;99855.94;4361670;32;34268;-87
2023/09/06 11:36:31;;;;;;;3.87;2.03;;;;;;;28.81;27.54;99844.25;4362049;32;34172;-89
2023/09/06 11:39:40;;;;;;;5.85;1.90;;;;;;;28.49;27.33;99845.88;4362716;32;34589;-87
2023/09/06 11:41:58;;;;;;;4.12;2.08;;;;;;;28.12;29.02;99837.88;4359755;32;34436;-88
2023/09/06 11:44:26;;;;;;;4.32;2.28;;;;;;;28.42;28.62;99841.81;4362428;32;32999;-88
2023/09/06 11:46:54;;;;;;;5.32;2.60;;;;;;;28.60;28.43;99839.09;4361831;32;33480;-87
2023/09/06 11:49:25;;;;;;;5.57;2.30;;;;;;;28.57;27.64;99833.91;4375524;32;33242;-87
2023/09/06 11:51:53;;;;;;;5.97;2.20;;;;;;;28.34;29.30;99832.38;4375618;32;34008;-87
2023/09/06 11:54:26;;;;;;;4.53;2.28;;;;;;;28.50;30.34;99821.81;4349501;32;34314;-88